TimeCST,TemperatureF,Dew PointF,Humidity,Sea Level PressureIn,VisibilityMPH,Wind Direction,Wind SpeedMPH,Gust SpeedMPH,PrecipitationIn,Events,Conditions,WindDirDegrees,DateUTC
12:53 AM,39.0,28.9,67,30.31,10.0,NNE,6.9,-,N/A,,Clear,20,2012-12-13 06:53:00
1:53 AM,39.9,30.0,68,30.30,10.0,NNE,8.1,-,N/A,,Clear,30,2012-12-13 07:53:00
2:53 AM,39.9,30.0,68,30.31,10.0,NNE,8.1,-,N/A,,Clear,30,2012-12-13 08:53:00
3:53 AM,39.9,28.9,65,30.31,10.0,NE,6.9,-,N/A,,Clear,40,2012-12-13 09:53:00
4:53 AM,37.9,28.0,68,30.32,10.0,North,5.8,-,N/A,,Clear,360,2012-12-13 10:53:00
5:53 AM,36.0,28.0,73,30.33,10.0,NNE,5.8,-,N/A,,Clear,20,2012-12-13 11:53:00
6:53 AM,35.1,28.0,76,30.35,10.0,North,4.6,-,N/A,,Clear,10,2012-12-13 12:53:00
7:53 AM,41.0,30.9,67,30.35,10.0,NE,9.2,-,N/A,,Clear,40,2012-12-13 13:53:00
8:53 AM,46.0,30.0,54,30.37,-9999.0,ENE,5.8,-,N/A,,Clear,60,2012-12-13 14:53:00
9:53 AM,51.1,30.0,44,30.39,10.0,East,4.6,-,N/A,,Clear,100,2012-12-13 15:53:00
10:53 AM,55.0,30.9,40,30.37,10.0,Variable,3.5,-,N/A,,Clear,0,2012-12-13 16:53:00
11:53 AM,57.9,30.9,36,30.34,10.0,NNE,6.9,-,N/A,,Clear,20,2012-12-13 17:53:00
12:53 PM,61.0,30.9,32,30.31,10.0,Variable,4.6,-,N/A,,Clear,0,2012-12-13 18:53:00
1:53 PM,62.1,28.9,29,30.28,10.0,NE,9.2,-,N/A,,Clear,50,2012-12-13 19:53:00
2:53 PM,64.0,30.0,28,30.26,10.0,NNE,5.8,-,N/A,,Clear,20,2012-12-13 20:53:00
3:53 PM,64.0,28.9,27,30.26,10.0,NNE,5.8,-,N/A,,Clear,30,2012-12-13 21:53:00
7:53 PM,46.0,39.0,76,30.28,10.0,Calm,Calm,-,N/A,,Clear,0,2012-12-14 01:53:00
8:53 PM,44.1,39.0,82,30.30,-9999.0,Calm,Calm,-,N/A,,Clear,0,2012-12-14 02:53:00
9:53 PM,43.0,39.0,86,30.29,10.0,Calm,Calm,-,N/A,,Clear,0,2012-12-14 03:53:00
10:53 PM,41.0,37.9,89,30.28,8.0,Calm,Calm,-,N/A,,Clear,0,2012-12-14 04:53:00